sensor_id;sensor_type;location;lat;lon;timestamp;pressure;altitude;pressure_sealevel;temperature
11792;BMP180;5953;52.372;9.918;2023-02-13T00:01:02;103015.00;;;13.10
11792;BMP180;5953;52.372;9.918;2023-02-13T00:03:29;102989.00;;;13.10
11792;BMP180;5953;52.372;9.918;2023-02-13T00:05:57;103013.00;;;13.10
11792;BMP180;5953;52.372;9.918;2023-02-13T00:08:25;102987.00;;;12.90
11792;BMP180;5953;52.372;9.918;2023-02-13T00:10:53;102979.00;;;13.00
11792;BMP180;5953;52.372;9.918;2023-02-13T00:13:21;103010.00;;;13.10
11792;BMP180;5953;52.372;9.918;2023-02-13T00:15:56;103002.00;;;13.20
11792;BMP180;5953;52.372;9.918;2023-02-13T00:18:25;103008.00;;;13.30
11792;BMP180;5953;52.372;9.918;2023-02-13T00:20:57;103014.00;;;13.40
11792;BMP180;5953;52.372;9.918;2023-02-13T00:23:25;102995.00;;;13.50
11792;BMP180;5953;52.372;9.918;2023-02-13T00:25:53;103009.00;;;13.60
11792;BMP180;5953;52.372;9.918;2023-02-13T00:28:20;103005.00;;;13.70
11792;BMP180;5953;52.372;9.918;2023-02-13T00:30:48;103000.00;;;13.80
11792;BMP180;5953;52.372;9.918;2023-02-13T00:33:18;103007.00;;;13.90
11792;BMP180;5953;52.372;9.918;2023-02-13T00:35:45;102997.00;;;14.00
11792;BMP180;5953;52.372;9.918;2023-02-13T00:38:13;103020.00;;;14.10
11792;BMP180;5953;52.372;9.918;2023-02-13T00:40:41;103009.00;;;14.10
11792;BMP180;5953;52.372;9.918;2023-02-13T00:43:09;103019.00;;;14.20
11792;BMP180;5953;52.372;9.918;2023-02-13T00:45:36;103018.00;;;14.20
11792;BMP180;5953;52.372;9.918;2023-02-13T00:48:04;103014.00;;;14.20
11792;BMP180;5953;52.372;9.918;2023-02-13T00:50:33;103013.00;;;14.30
11792;BMP180;5953;52.372;9.918;2023-02-13T00:53:01;103012.00;;;14.30
11792;BMP180;5953;52.372;9.918;2023-02-13T00:55:29;103006.00;;;14.40
11792;BMP180;5953;52.372;9.918;2023-02-13T00:57:56;103005.00;;;14.30
11792;BMP180;5953;52.372;9.918;2023-02-13T01:00:24;103010.00;;;14.40
11792;BMP180;5953;52.372;9.918;2023-02-13T01:02:52;103006.00;;;14.40
11792;BMP180;5953;52.372;9.918;2023-02-13T01:05:20;103003.00;;;14.40
11792;BMP180;5953;52.372;9.918;2023-02-13T01:07:49;102993.00;;;14.50
11792;BMP180;5953;52.372;9.918;2023-02-13T01:10:17;102991.00;;;14.50
11792;BMP180;5953;52.372;9.918;2023-02-13T01:12:45;102998.00;;;14.60
11792;BMP180;5953;52.372;9.918;2023-02-13T01:15:13;102961.00;;;14.50
11792;BMP180;5953;52.372;9.918;2023-02-13T01:17:41;102981.00;;;14.50
11792;BMP180;5953;52.372;9.918;2023-02-13T01:20:10;102987.00;;;14.40
11792;BMP180;5953;52.372;9.918;2023-02-13T01:22:39;102982.00;;;14.40
11792;BMP180;5953;52.372;9.918;2023-02-13T01:25:11;102991.00;;;14.40
11792;BMP180;5953;52.372;9.918;2023-02-13T01:27:38;102981.00;;;14.40
11792;BMP180;5953;52.372;9.918;2023-02-13T01:30:09;102969.00;;;14.40
11792;BMP180;5953;52.372;9.918;2023-02-13T01:32:39;102980.00;;;14.40
11792;BMP180;5953;52.372;9.918;2023-02-13T01:35:08;102976.00;;;14.50
11792;BMP180;5953;52.372;9.918;2023-02-13T01:37:36;102971.00;;;14.50
11792;BMP180;5953;52.372;9.918;2023-02-13T01:40:06;102971.00;;;14.40
11792;BMP180;5953;52.372;9.918;2023-02-13T01:42:35;102974.00;;;14.40
11792;BMP180;5953;52.372;9.918;2023-02-13T01:45:05;102970.00;;;14.40
11792;BMP180;5953;52.372;9.918;2023-02-13T01:47:38;102966.00;;;14.50
11792;BMP180;5953;52.372;9.918;2023-02-13T01:50:10;102973.00;;;14.30
11792;BMP180;5953;52.372;9.918;2023-02-13T01:52:41;102964.00;;;14.20
11792;BMP180;5953;52.372;9.918;2023-02-13T01:55:11;102979.00;;;14.30
11792;BMP180;5953;52.372;9.918;2023-02-13T01:57:43;102966.00;;;14.40
11792;BMP180;5953;52.372;9.918;2023-02-13T02:00:15;102946.00;;;14.40
11792;BMP180;5953;52.372;9.918;2023-02-13T02:02:45;102972.00;;;14.30
11792;BMP180;5953;52.372;9.918;2023-02-13T02:05:15;102963.00;;;14.30
11792;BMP180;5953;52.372;9.918;2023-02-13T02:07:44;102952.00;;;14.30
11792;BMP180;5953;52.372;9.918;2023-02-13T02:10:14;102962.00;;;14.30
11792;BMP180;5953;52.372;9.918;2023-02-13T02:12:46;102948.00;;;14.30
11792;BMP180;5953;52.372;9.918;2023-02-13T02:15:16;102959.00;;;14.30
11792;BMP180;5953;52.372;9.918;2023-02-13T02:17:44;102958.00;;;14.30
11792;BMP180;5953;52.372;9.918;2023-02-13T02:20:21;102956.00;;;14.30
11792;BMP180;5953;52.372;9.918;2023-02-13T02:26:39;102953.00;;;14.30
11792;BMP180;5953;52.372;9.918;2023-02-13T02:32:40;102953.00;;;14.30
11792;BMP180;5953;52.372;9.918;2023-02-13T02:35:19;102948.00;;;14.30
11792;BMP180;5953;52.372;9.918;2023-02-13T02:38:11;102939.00;;;14.20
11792;BMP180;5953;52.372;9.918;2023-02-13T02:40:51;102941.00;;;14.10
11792;BMP180;5953;52.372;9.918;2023-02-13T02:43:30;102936.00;;;14.20
11792;BMP180;5953;52.372;9.918;2023-02-13T02:46:07;102922.00;;;14.10
11792;BMP180;5953;52.372;9.918;2023-02-13T02:48:43;102939.00;;;14.20
11792;BMP180;5953;52.372;9.918;2023-02-13T02:51:32;102938.00;;;14.20
11792;BMP180;5953;52.372;9.918;2023-02-13T02:54:08;102926.00;;;14.20
11792;BMP180;5953;52.372;9.918;2023-02-13T02:56:56;102914.00;;;14.10
11792;BMP180;5953;52.372;9.918;2023-02-13T02:59:26;102927.00;;;14.20
11792;BMP180;5953;52.372;9.918;2023-02-13T03:02:12;102923.00;;;14.20
11792;BMP180;5953;52.372;9.918;2023-02-13T03:05:18;102925.00;;;14.20
11792;BMP180;5953;52.372;9.918;2023-02-13T03:08:05;102928.00;;;14.20
11792;BMP180;5953;52.372;9.918;2023-02-13T03:10:35;102933.00;;;14.10
11792;BMP180;5953;52.372;9.918;2023-02-13T03:13:36;102923.00;;;14.10
11792;BMP180;5953;52.372;9.918;2023-02-13T03:16:05;102933.00;;;14.00
11792;BMP180;5953;52.372;9.918;2023-02-13T03:18:52;102933.00;;;14.10
11792;BMP180;5953;52.372;9.918;2023-02-13T03:21:46;102937.00;;;14.00
11792;BMP180;5953;52.372;9.918;2023-02-13T03:24:37;102920.00;;;14.00
11792;BMP180;5953;52.372;9.918;2023-02-13T03:27:10;102931.00;;;14.00
11792;BMP180;5953;52.372;9.918;2023-02-13T03:30:09;102931.00;;;14.00
11792;BMP180;5953;52.372;9.918;2023-02-13T03:32:44;102929.00;;;13.90
11792;BMP180;5953;52.372;9.918;2023-02-13T03:35:26;102931.00;;;13.60
11792;BMP180;5953;52.372;9.918;2023-02-13T03:38:38;102913.00;;;13.30
11792;BMP180;5953;52.372;9.918;2023-02-13T03:41:12;102930.00;;;13.30
11792;BMP180;5953;52.372;9.918;2023-02-13T03:43:55;102948.00;;;13.50
11792;BMP180;5953;52.372;9.918;2023-02-13T03:46:25;102946.00;;;13.50
11792;BMP180;5953;52.372;9.918;2023-02-13T03:48:57;102942.00;;;13.40
11792;BMP180;5953;52.372;9.918;2023-02-13T03:51:47;102939.00;;;13.20
11792;BMP180;5953;52.372;9.918;2023-02-13T03:54:21;102944.00;;;13.40
11792;BMP180;5953;52.372;9.918;2023-02-13T03:57:08;102952.00;;;13.50
11792;BMP180;5953;52.372;9.918;2023-02-13T03:59:56;102935.00;;;13.60
11792;BMP180;5953;52.372;9.918;2023-02-13T04:02:30;102930.00;;;13.50
11792;BMP180;5953;52.372;9.918;2023-02-13T04:05:06;102933.00;;;13.40
11792;BMP180;5953;52.372;9.918;2023-02-13T04:07:35;102932.00;;;13.40
11792;BMP180;5953;52.372;9.918;2023-02-13T04:10:07;102937.00;;;13.30
11792;BMP180;5953;52.372;9.918;2023-02-13T04:12:42;102936.00;;;13.30
11792;BMP180;5953;52.372;9.918;2023-02-13T04:15:15;102919.00;;;13.30
11792;BMP180;5953;52.372;9.918;2023-02-13T04:17:47;102928.00;;;13.20
11792;BMP180;5953;52.372;9.918;2023-02-13T04:20:17;102921.00;;;13.20
11792;BMP180;5953;52.372;9.918;2023-02-13T04:22:47;102930.00;;;13.30
11792;BMP180;5953;52.372;9.918;2023-02-13T04:25:16;102933.00;;;13.30
11792;BMP180;5953;52.372;9.918;2023-02-13T04:27:44;102932.00;;;13.30
11792;BMP180;5953;52.372;9.918;2023-02-13T04:30:13;102930.00;;;13.40
11792;BMP180;5953;52.372;9.918;2023-02-13T04:32:41;102933.00;;;13.50
11792;BMP180;5953;52.372;9.918;2023-02-13T04:35:08;102927.00;;;13.40
11792;BMP180;5953;52.372;9.918;2023-02-13T04:37:39;102922.00;;;13.20
11792;BMP180;5953;52.372;9.918;2023-02-13T04:40:08;102919.00;;;13.20
11792;BMP180;5953;52.372;9.918;2023-02-13T04:42:37;102922.00;;;12.70
11792;BMP180;5953;52.372;9.918;2023-02-13T04:45:05;102916.00;;;12.90
11792;BMP180;5953;52.372;9.918;2023-02-13T04:47:33;102924.00;;;12.90
11792;BMP180;5953;52.372;9.918;2023-02-13T04:50:01;102919.00;;;12.90
11792;BMP180;5953;52.372;9.918;2023-02-13T04:52:28;102915.00;;;13.00
11792;BMP180;5953;52.372;9.918;2023-02-13T04:54:56;102916.00;;;12.90
11792;BMP180;5953;52.372;9.918;2023-02-13T04:57:24;102919.00;;;13.00
11792;BMP180;5953;52.372;9.918;2023-02-13T04:59:53;102919.00;;;12.90
11792;BMP180;5953;52.372;9.918;2023-02-13T05:02:21;102908.00;;;12.90
11792;BMP180;5953;52.372;9.918;2023-02-13T05:04:49;102902.00;;;12.90
11792;BMP180;5953;52.372;9.918;2023-02-13T05:07:16;102914.00;;;12.80
11792;BMP180;5953;52.372;9.918;2023-02-13T05:09:44;102925.00;;;12.90
11792;BMP180;5953;52.372;9.918;2023-02-13T05:12:12;102921.00;;;13.00
11792;BMP180;5953;52.372;9.918;2023-02-13T05:14:40;102922.00;;;13.10
11792;BMP180;5953;52.372;9.918;2023-02-13T05:17:09;102912.00;;;13.10
11792;BMP180;5953;52.372;9.918;2023-02-13T05:19:36;102905.00;;;12.40
11792;BMP180;5953;52.372;9.918;2023-02-13T05:22:04;102933.00;;;12.70
11792;BMP180;5953;52.372;9.918;2023-02-13T05:24:50;102928.00;;;12.70
11792;BMP180;5953;52.372;9.918;2023-02-13T05:27:18;102929.00;;;12.80
11792;BMP180;5953;52.372;9.918;2023-02-13T05:29:45;102931.00;;;12.70
11792;BMP180;5953;52.372;9.918;2023-02-13T05:32:15;102931.00;;;12.70
11792;BMP180;5953;52.372;9.918;2023-02-13T05:34:43;102929.00;;;12.80
11792;BMP180;5953;52.372;9.918;2023-02-13T05:37:10;102929.00;;;12.70
11792;BMP180;5953;52.372;9.918;2023-02-13T05:39:38;102930.00;;;12.60
11792;BMP180;5953;52.372;9.918;2023-02-13T05:42:06;102939.00;;;12.50
11792;BMP180;5953;52.372;9.918;2023-02-13T05:44:34;102921.00;;;12.60
11792;BMP180;5953;52.372;9.918;2023-02-13T05:47:02;102934.00;;;12.60
11792;BMP180;5953;52.372;9.918;2023-02-13T05:49:33;102936.00;;;12.60
11792;BMP180;5953;52.372;9.918;2023-02-13T05:52:00;102901.00;;;12.50
11792;BMP180;5953;52.372;9.918;2023-02-13T05:54:28;102927.00;;;12.40
11792;BMP180;5953;52.372;9.918;2023-02-13T05:56:56;102947.00;;;12.40
11792;BMP180;5953;52.372;9.918;2023-02-13T05:59:24;102941.00;;;12.50
11792;BMP180;5953;52.372;9.918;2023-02-13T06:01:51;102942.00;;;12.50
11792;BMP180;5953;52.372;9.918;2023-02-13T06:04:20;102931.00;;;12.40
11792;BMP180;5953;52.372;9.918;2023-02-13T06:06:49;102949.00;;;12.40
11792;BMP180;5953;52.372;9.918;2023-02-13T06:09:17;102943.00;;;12.20
11792;BMP180;5953;52.372;9.918;2023-02-13T06:11:44;102946.00;;;12.10
11792;BMP180;5953;52.372;9.918;2023-02-13T06:14:12;102945.00;;;12.00
11792;BMP180;5953;52.372;9.918;2023-02-13T06:16:40;102943.00;;;11.90
11792;BMP180;5953;52.372;9.918;2023-02-13T06:19:08;102944.00;;;12.00
11792;BMP180;5953;52.372;9.918;2023-02-13T06:21:36;102963.00;;;12.10
11792;BMP180;5953;52.372;9.918;2023-02-13T06:24:06;102964.00;;;12.10
11792;BMP180;5953;52.372;9.918;2023-02-13T06:26:34;102957.00;;;12.10
11792;BMP180;5953;52.372;9.918;2023-02-13T06:29:02;102956.00;;;12.10
11792;BMP180;5953;52.372;9.918;2023-02-13T06:31:32;102951.00;;;12.20
11792;BMP180;5953;52.372;9.918;2023-02-13T06:34:00;102961.00;;;12.30
11792;BMP180;5953;52.372;9.918;2023-02-13T06:36:27;102942.00;;;12.30
11792;BMP180;5953;52.372;9.918;2023-02-13T06:38:55;102968.00;;;12.40
11792;BMP180;5953;52.372;9.918;2023-02-13T06:41:24;102957.00;;;12.40
11792;BMP180;5953;52.372;9.918;2023-02-13T06:43:52;102972.00;;;12.40
11792;BMP180;5953;52.372;9.918;2023-02-13T06:46:20;102971.00;;;12.30
11792;BMP180;5953;52.372;9.918;2023-02-13T06:48:48;102977.00;;;12.20
11792;BMP180;5953;52.372;9.918;2023-02-13T06:51:15;102969.00;;;12.30
11792;BMP180;5953;52.372;9.918;2023-02-13T06:53:43;102966.00;;;12.30
11792;BMP180;5953;52.372;9.918;2023-02-13T06:56:11;102959.00;;;12.00
11792;BMP180;5953;52.372;9.918;2023-02-13T06:58:40;102970.00;;;12.00
11792;BMP180;5953;52.372;9.918;2023-02-13T07:01:08;102975.00;;;12.20
11792;BMP180;5953;52.372;9.918;2023-02-13T07:03:36;102972.00;;;12.20
11792;BMP180;5953;52.372;9.918;2023-02-13T07:06:04;102977.00;;;12.20
11792;BMP180;5953;52.372;9.918;2023-02-13T07:08:35;102991.00;;;12.20
11792;BMP180;5953;52.372;9.918;2023-02-13T07:11:03;102969.00;;;12.30
11792;BMP180;5953;52.372;9.918;2023-02-13T07:13:31;102969.00;;;12.40
11792;BMP180;5953;52.372;9.918;2023-02-13T07:16:03;102967.00;;;12.40
11792;BMP180;5953;52.372;9.918;2023-02-13T07:18:31;102968.00;;;12.50
11792;BMP180;5953;52.372;9.918;2023-02-13T07:21:04;102974.00;;;12.10
11792;BMP180;5953;52.372;9.918;2023-02-13T07:23:33;102984.00;;;12.30
11792;BMP180;5953;52.372;9.918;2023-02-13T07:26:01;102986.00;;;12.50
11792;BMP180;5953;52.372;9.918;2023-02-13T07:28:29;102985.00;;;12.60
11792;BMP180;5953;52.372;9.918;2023-02-13T07:30:57;102984.00;;;12.20
11792;BMP180;5953;52.372;9.918;2023-02-13T07:33:26;102975.00;;;12.20
11792;BMP180;5953;52.372;9.918;2023-02-13T07:35:54;102981.00;;;12.40
11792;BMP180;5953;52.372;9.918;2023-02-13T07:38:22;102983.00;;;12.30
11792;BMP180;5953;52.372;9.918;2023-02-13T07:40:50;102992.00;;;12.30
11792;BMP180;5953;52.372;9.918;2023-02-13T07:43:18;103002.00;;;12.10
11792;BMP180;5953;52.372;9.918;2023-02-13T07:45:45;103001.00;;;12.00
11792;BMP180;5953;52.372;9.918;2023-02-13T07:48:13;102987.00;;;12.10
11792;BMP180;5953;52.372;9.918;2023-02-13T07:50:42;103007.00;;;12.10
11792;BMP180;5953;52.372;9.918;2023-02-13T07:53:10;102988.00;;;12.20
11792;BMP180;5953;52.372;9.918;2023-02-13T07:55:38;102990.00;;;12.30
11792;BMP180;5953;52.372;9.918;2023-02-13T07:58:06;103000.00;;;12.30
11792;BMP180;5953;52.372;9.918;2023-02-13T08:00:34;102998.00;;;12.30
11792;BMP180;5953;52.372;9.918;2023-02-13T08:03:02;103010.00;;;12.40
11792;BMP180;5953;52.372;9.918;2023-02-13T08:05:31;103000.00;;;12.20
11792;BMP180;5953;52.372;9.918;2023-02-13T08:08:01;103006.00;;;12.40
11792;BMP180;5953;52.372;9.918;2023-02-13T08:10:28;103005.00;;;12.30
11792;BMP180;5953;52.372;9.918;2023-02-13T08:13:15;103010.00;;;12.20
11792;BMP180;5953;52.372;9.918;2023-02-13T08:15:43;103011.00;;;12.30
11792;BMP180;5953;52.372;9.918;2023-02-13T08:18:11;103013.00;;;12.40
11792;BMP180;5953;52.372;9.918;2023-02-13T08:20:39;103020.00;;;12.50
11792;BMP180;5953;52.372;9.918;2023-02-13T08:23:10;103031.00;;;12.50
11792;BMP180;5953;52.372;9.918;2023-02-13T08:25:38;102991.00;;;12.40
11792;BMP180;5953;52.372;9.918;2023-02-13T08:28:06;103024.00;;;12.20
11792;BMP180;5953;52.372;9.918;2023-02-13T08:30:34;103004.00;;;12.30
11792;BMP180;5953;52.372;9.918;2023-02-13T08:33:01;103022.00;;;12.20
11792;BMP180;5953;52.372;9.918;2023-02-13T08:35:29;103018.00;;;12.30
11792;BMP180;5953;52.372;9.918;2023-02-13T08:38:01;103022.00;;;12.30
11792;BMP180;5953;52.372;9.918;2023-02-13T08:40:30;103014.00;;;12.20
11792;BMP180;5953;52.372;9.918;2023-02-13T08:42:59;102985.00;;;12.20
11792;BMP180;5953;52.372;9.918;2023-02-13T08:45:28;103015.00;;;12.20
11792;BMP180;5953;52.372;9.918;2023-02-13T08:47:56;102986.00;;;12.20
11792;BMP180;5953;52.372;9.918;2023-02-13T08:50:24;103011.00;;;12.20
11792;BMP180;5953;52.372;9.918;2023-02-13T08:52:53;103007.00;;;12.30
11792;BMP180;5953;52.372;9.918;2023-02-13T08:55:20;103014.00;;;12.30
11792;BMP180;5953;52.372;9.918;2023-02-13T08:57:50;103021.00;;;12.20
11792;BMP180;5953;52.372;9.918;2023-02-13T09:00:18;103007.00;;;12.20
11792;BMP180;5953;52.372;9.918;2023-02-13T09:02:49;103015.00;;;12.10
11792;BMP180;5953;52.372;9.918;2023-02-13T09:05:17;102985.00;;;12.20
11792;BMP180;5953;52.372;9.918;2023-02-13T09:07:45;103012.00;;;12.10
11792;BMP180;5953;52.372;9.918;2023-02-13T09:10:13;103000.00;;;12.00
11792;BMP180;5953;52.372;9.918;2023-02-13T09:12:41;103017.00;;;12.20
11792;BMP180;5953;52.372;9.918;2023-02-13T09:15:12;103015.00;;;11.90
11792;BMP180;5953;52.372;9.918;2023-02-13T09:17:40;103023.00;;;12.10
11792;BMP180;5953;52.372;9.918;2023-02-13T09:20:10;103015.00;;;12.00
11792;BMP180;5953;52.372;9.918;2023-02-13T09:22:39;103019.00;;;12.00
11792;BMP180;5953;52.372;9.918;2023-02-13T09:25:07;103014.00;;;12.00
11792;BMP180;5953;52.372;9.918;2023-02-13T09:27:36;103014.00;;;12.10
11792;BMP180;5953;52.372;9.918;2023-02-13T09:30:05;103007.00;;;12.20
11792;BMP180;5953;52.372;9.918;2023-02-13T09:32:36;103008.00;;;12.20
11792;BMP180;5953;52.372;9.918;2023-02-13T09:35:05;103001.00;;;12.30
11792;BMP180;5953;52.372;9.918;2023-02-13T09:37:32;103020.00;;;12.20
11792;BMP180;5953;52.372;9.918;2023-02-13T09:40:00;103003.00;;;11.90
11792;BMP180;5953;52.372;9.918;2023-02-13T09:42:32;103009.00;;;12.10
11792;BMP180;5953;52.372;9.918;2023-02-13T09:45:04;102969.00;;;12.00
11792;BMP180;5953;52.372;9.918;2023-02-13T09:47:36;102998.00;;;12.20
11792;BMP180;5953;52.372;9.918;2023-02-13T09:50:10;103015.00;;;12.20
11792;BMP180;5953;52.372;9.918;2023-02-13T09:52:39;102998.00;;;12.00
11792;BMP180;5953;52.372;9.918;2023-02-13T09:55:14;103011.00;;;12.00
11792;BMP180;5953;52.372;9.918;2023-02-13T09:57:47;103025.00;;;12.10
11792;BMP180;5953;52.372;9.918;2023-02-13T10:00:20;103014.00;;;12.20
11792;BMP180;5953;52.372;9.918;2023-02-13T10:03:11;103010.00;;;12.30
11792;BMP180;5953;52.372;9.918;2023-02-13T10:05:47;103008.00;;;12.20
11792;BMP180;5953;52.372;9.918;2023-02-13T10:08:27;103014.00;;;12.20
11792;BMP180;5953;52.372;9.918;2023-02-13T10:11:06;103025.00;;;12.30
11792;BMP180;5953;52.372;9.918;2023-02-13T10:13:47;103019.00;;;12.30
11792;BMP180;5953;52.372;9.918;2023-02-13T10:16:20;103024.00;;;12.30
11792;BMP180;5953;52.372;9.918;2023-02-13T10:18:54;103026.00;;;12.30
11792;BMP180;5953;52.372;9.918;2023-02-13T10:21:28;103029.00;;;12.30
11792;BMP180;5953;52.372;9.918;2023-02-13T10:23:59;103031.00;;;12.40
11792;BMP180;5953;52.372;9.918;2023-02-13T10:26:32;102981.00;;;12.50
11792;BMP180;5953;52.372;9.918;2023-02-13T10:29:14;103025.00;;;12.50
11792;BMP180;5953;52.372;9.918;2023-02-13T10:32:06;103017.00;;;12.60
11792;BMP180;5953;52.372;9.918;2023-02-13T10:34:41;103024.00;;;12.70
11792;BMP180;5953;52.372;9.918;2023-02-13T10:37:15;103026.00;;;12.50
11792;BMP180;5953;52.372;9.918;2023-02-13T10:39:44;103035.00;;;12.10
11792;BMP180;5953;52.372;9.918;2023-02-13T10:42:20;103009.00;;;12.50
11792;BMP180;5953;52.372;9.918;2023-02-13T10:45:02;103026.00;;;12.60
11792;BMP180;5953;52.372;9.918;2023-02-13T10:47:51;103021.00;;;12.60
11792;BMP180;5953;52.372;9.918;2023-02-13T10:50:29;103027.00;;;12.30
11792;BMP180;5953;52.372;9.918;2023-02-13T10:53:06;103010.00;;;12.60
11792;BMP180;5953;52.372;9.918;2023-02-13T10:56:07;103024.00;;;12.70
11792;BMP180;5953;52.372;9.918;2023-02-13T11:01:39;103024.00;;;12.50
11792;BMP180;5953;52.372;9.918;2023-02-13T11:04:11;102997.00;;;12.70
11792;BMP180;5953;52.372;9.918;2023-02-13T11:06:47;102999.00;;;12.80
11792;BMP180;5953;52.372;9.918;2023-02-13T11:09:17;103002.00;;;12.70
11792;BMP180;5953;52.372;9.918;2023-02-13T11:11:45;103005.00;;;12.70
11792;BMP180;5953;52.372;9.918;2023-02-13T11:14:15;102997.00;;;12.90
11792;BMP180;5953;52.372;9.918;2023-02-13T11:16:50;102966.00;;;12.90
11792;BMP180;5953;52.372;9.918;2023-02-13T11:19:22;102999.00;;;12.40
11792;BMP180;5953;52.372;9.918;2023-02-13T11:21:58;103005.00;;;12.70
11792;BMP180;5953;52.372;9.918;2023-02-13T11:24:27;103002.00;;;12.90
11792;BMP180;5953;52.372;9.918;2023-02-13T11:27:00;103005.00;;;12.90
11792;BMP180;5953;52.372;9.918;2023-02-13T11:29:32;103000.00;;;13.00
11792;BMP180;5953;52.372;9.918;2023-02-13T11:32:04;103010.00;;;13.00
11792;BMP180;5953;52.372;9.918;2023-02-13T11:34:33;102981.00;;;13.20
11792;BMP180;5953;52.372;9.918;2023-02-13T11:37:18;102990.00;;;13.10
11792;BMP180;5953;52.372;9.918;2023-02-13T11:39:49;102991.00;;;13.10
11792;BMP180;5953;52.372;9.918;2023-02-13T11:42:23;102999.00;;;13.00
11792;BMP180;5953;52.372;9.918;2023-02-13T11:44:53;102996.00;;;12.90
11792;BMP180;5953;52.372;9.918;2023-02-13T11:47:35;103000.00;;;12.90
11792;BMP180;5953;52.372;9.918;2023-02-13T11:50:05;102995.00;;;12.90
11792;BMP180;5953;52.372;9.918;2023-02-13T11:52:35;102988.00;;;12.90
11792;BMP180;5953;52.372;9.918;2023-02-13T11:55:23;102986.00;;;12.80
11792;BMP180;5953;52.372;9.918;2023-02-13T11:57:56;102985.00;;;12.90
11792;BMP180;5953;52.372;9.918;2023-02-13T12:00:31;102981.00;;;12.50
11792;BMP180;5953;52.372;9.918;2023-02-13T12:03:23;102984.00;;;12.80
11792;BMP180;5953;52.372;9.918;2023-02-13T12:06:11;102979.00;;;13.00
11792;BMP180;5953;52.372;9.918;2023-02-13T12:08:43;102950.00;;;13.10
11792;BMP180;5953;52.372;9.918;2023-02-13T12:11:20;102975.00;;;13.20
11792;BMP180;5953;52.372;9.918;2023-02-13T12:13:49;102964.00;;;13.20
11792;BMP180;5953;52.372;9.918;2023-02-13T12:16:26;102967.00;;;13.00
11792;BMP180;5953;52.372;9.918;2023-02-13T12:18:59;102970.00;;;12.80
11792;BMP180;5953;52.372;9.918;2023-02-13T12:21:39;102972.00;;;13.20
11792;BMP180;5953;52.372;9.918;2023-02-13T12:24:18;102953.00;;;13.20
11792;BMP180;5953;52.372;9.918;2023-02-13T12:26:53;102972.00;;;13.10
11792;BMP180;5953;52.372;9.918;2023-02-13T12:29:33;102957.00;;;13.40
11792;BMP180;5953;52.372;9.918;2023-02-13T12:32:17;102951.00;;;13.50
11792;BMP180;5953;52.372;9.918;2023-02-13T12:34:58;102935.00;;;13.40
11792;BMP180;5953;52.372;9.918;2023-02-13T12:37:40;102945.00;;;13.30
11792;BMP180;5953;52.372;9.918;2023-02-13T12:43:30;102932.00;;;13.30
11792;BMP180;5953;52.372;9.918;2023-02-13T12:46:06;102949.00;;;13.60
11792;BMP180;5953;52.372;9.918;2023-02-13T12:48:41;102938.00;;;13.40
11792;BMP180;5953;52.372;9.918;2023-02-13T12:51:29;102944.00;;;13.60
11792;BMP180;5953;52.372;9.918;2023-02-13T12:54:13;102944.00;;;13.70
11792;BMP180;5953;52.372;9.918;2023-02-13T12:57:01;102935.00;;;13.50
11792;BMP180;5953;52.372;9.918;2023-02-13T12:59:38;102935.00;;;13.10
11792;BMP180;5953;52.372;9.918;2023-02-13T13:05:26;102934.00;;;13.40
11792;BMP180;5953;52.372;9.918;2023-02-13T13:08:24;102937.00;;;13.40
11792;BMP180;5953;52.372;9.918;2023-02-13T13:11:04;102938.00;;;13.40
11792;BMP180;5953;52.372;9.918;2023-02-13T13:13:45;102937.00;;;13.40
11792;BMP180;5953;52.372;9.918;2023-02-13T13:16:22;102945.00;;;13.40
11792;BMP180;5953;52.372;9.918;2023-02-13T13:19:03;102937.00;;;13.00
11792;BMP180;5953;52.372;9.918;2023-02-13T13:21:40;102932.00;;;13.30
11792;BMP180;5953;52.372;9.918;2023-02-13T13:24:22;102923.00;;;13.40
11792;BMP180;5953;52.372;9.918;2023-02-13T13:26:51;102924.00;;;13.40
11792;BMP180;5953;52.372;9.918;2023-02-13T13:29:26;102926.00;;;13.30
11792;BMP180;5953;52.372;9.918;2023-02-13T13:32:00;102921.00;;;13.50
11792;BMP180;5953;52.372;9.918;2023-02-13T13:34:30;102922.00;;;13.60
11792;BMP180;5953;52.372;9.918;2023-02-13T13:37:03;102921.00;;;13.30
11792;BMP180;5953;52.372;9.918;2023-02-13T13:39:42;102924.00;;;13.50
11792;BMP180;5953;52.372;9.918;2023-02-13T13:42:16;102908.00;;;13.20
11792;BMP180;5953;52.372;9.918;2023-02-13T13:45:08;102888.00;;;13.30
11792;BMP180;5953;52.372;9.918;2023-02-13T13:47:58;102910.00;;;13.60
11792;BMP180;5953;52.372;9.918;2023-02-13T13:50:32;102906.00;;;13.60
11792;BMP180;5953;52.372;9.918;2023-02-13T13:53:11;102909.00;;;13.50
11792;BMP180;5953;52.372;9.918;2023-02-13T13:56:03;102877.00;;;13.30
11792;BMP180;5953;52.372;9.918;2023-02-13T13:58:39;102890.00;;;13.70
11792;BMP180;5953;52.372;9.918;2023-02-13T14:01:19;102903.00;;;13.80
11792;BMP180;5953;52.372;9.918;2023-02-13T14:03:51;102851.00;;;13.60
11792;BMP180;5953;52.372;9.918;2023-02-13T14:06:21;102856.00;;;13.90
11792;BMP180;5953;52.372;9.918;2023-02-13T14:08:57;102877.00;;;14.00
11792;BMP180;5953;52.372;9.918;2023-02-13T14:11:37;102887.00;;;14.00
11792;BMP180;5953;52.372;9.918;2023-02-13T14:20:32;102864.00;;;14.00
11792;BMP180;5953;52.372;9.918;2023-02-13T14:23:13;102877.00;;;14.10
11792;BMP180;5953;52.372;9.918;2023-02-13T14:25:44;102875.00;;;13.90
11792;BMP180;5953;52.372;9.918;2023-02-13T14:28:21;102882.00;;;14.20
11792;BMP180;5953;52.372;9.918;2023-02-13T14:30:50;102877.00;;;14.00
11792;BMP180;5953;52.372;9.918;2023-02-13T14:33:25;102868.00;;;13.70
11792;BMP180;5953;52.372;9.918;2023-02-13T14:36:05;102878.00;;;13.70
11792;BMP180;5953;52.372;9.918;2023-02-13T14:38:34;102859.00;;;13.70
11792;BMP180;5953;52.372;9.918;2023-02-13T14:41:03;102889.00;;;13.80
11792;BMP180;5953;52.372;9.918;2023-02-13T14:43:36;102866.00;;;13.70
11792;BMP180;5953;52.372;9.918;2023-02-13T14:46:17;102843.00;;;13.30
11792;BMP180;5953;52.372;9.918;2023-02-13T14:48:51;102826.00;;;13.40
11792;BMP180;5953;52.372;9.918;2023-02-13T14:51:25;102853.00;;;13.50
11792;BMP180;5953;52.372;9.918;2023-02-13T14:53:58;102851.00;;;13.50
11792;BMP180;5953;52.372;9.918;2023-02-13T14:56:28;102831.00;;;13.90
11792;BMP180;5953;52.372;9.918;2023-02-13T14:59:01;102852.00;;;13.80
11792;BMP180;5953;52.372;9.918;2023-02-13T15:01:34;102861.00;;;13.80
11792;BMP180;5953;52.372;9.918;2023-02-13T15:04:09;102876.00;;;14.00